Hub


Voltar

 INFORMAÇÕES METEOROLÓGICAS

METAR FOR SBJV


ADDS - METARS form results

(0315 UTC 22 March 2019)
Data provider http://aviationweather.gov/metar/data/
 
Forecast for: SBJV (JOINVILLE , BR)
Text: TAF SBJV 212230Z 2200/2212 14005KT 8000 BKN015 BKN030 TX20/2200Z TN17/2209Z
Forecast period: 0000 to 1200 UTC 22 March 2019
Forecast type: FROM: standard forecast or significant change
Winds: from the SE (140 degrees) at 6 MPH (5 knots; 2.6 m/s)
Visibility: 5 miles (8 km)
Ceiling: 1500 feet AGL
Clouds: broken clouds at 1500 feet AGL
broken clouds at 3000 feet AGL
Weather: no significant weather forecast for this period
Text: PROB40
Forecast period: 0000 to 0600 UTC 22 March 2019
Forecast type: TEMPORARY: The following changes expected for less than half the time period
Visibility: 2.49 miles (4.01 km)
Ceiling: unknown
Clouds: missing
Weather: RA  (moderate rain)


 MAPA DO AEROPORTO


 INFORMAÇÕES DA PISTA

Pista 15 Tamanho da pista 5381 ft Largura da pista 148 ft
Elevação da pista 0 ft Ranhura da pista 330 ft Proa da pista 0
Pista 33 Tamanho da pista 5381 ft Largura da pista 148 ft
Elevação da pista 0 ft Ranhura da pista 0 ft Proa da pista 0

 FREQUÊNCIAS DO AEROPORTO

Tipo AFIS Nome TWR Frequência 118 MHZ

 AUXÍLIOS DE NAVEGAÇÃO PRÓXIMOS AO AEROPORTO

Tipo NDB Nome Gabi Frequência 245 KHZ
Tipo VOR-DME Nome Joinville Frequência 115100 KHZ